Terminal Aerodrome Forecast
Issued by NWS

Home | Current Version | Previous Version | Graphics & Text | Print | Product List | Glossary On
Versions: 1 2 3 4 5 6 7 8 9 10 11 12 13 14 15 16
341
FTUS43 KMPX 242330
TAFRNH
TAF
KRNH 242330Z 2500/2524 14010KT P6SM OVC013
     FM250500 13008KT 6SM -SHRA VCTS OVC008CB
     FM250900 17008KT 6SM -SHRA BR OVC009
     FM251300 22010KT P6SM SCT100
     FM251700 24014G22KT P6SM OVC050=

USA.gov is the U.S. government's official web portal to all federal, state and local government web resources and services.